Terminal Aerodrome Forecast
Issued by NWS Chicago, IL

Home | Current Version | Previous Version | Text Only | Print | Product List | Glossary On
Versions: 1 2 3 4 5 6 7 8 9 10 11 12 13 14 15 16 17 18 19 20 21 22 23 24 25 26 27
000
FTUS43 KLOT 280530
TAFRFD
TAF
KRFD 280530Z 2806/2906 35007KT P6SM -SHRA BKN040
     FM280900 34008KT P6SM BKN020
     FM281300 34010KT P6SM BKN010
     FM281700 36012G18KT P6SM VCSH BKN025
     FM290000 01010KT P6SM SCT035=

USA.gov is the U.S. government's official web portal to all federal, state and local government web resources and services.